Time;durP1;ratioP1;P1;durP2;ratioP2;P2;SDS_P1;SDS_P2;PMS_P1;PMS_P2;Temp;Humidity;BMP_temperature;BMP_pressure;BME280_temperature;BME280_humidity;BME280_pressure;Samples;Min_cycle;Max_cycle;Signal;HPM_P1;HPM_P2
2024/02/23 00:00:51;;;;;;;0.40;0.00;;;;;;;10.10;58.04;93369.28;6163463;23;20012;-86
2024/02/23 00:03:17;;;;;;;0.10;0.00;;;;;;;9.69;59.55;93352.63;6163215;23;20004;-86
2024/02/23 00:05:46;;;;;;;0.03;0.00;;;;;;;9.87;58.34;93364.78;6150142;23;20022;-86
2024/02/23 00:08:11;;;;;;;0.10;0.10;;;;;;;9.88;57.60;93342.19;6104425;23;20009;-87
2024/02/23 00:10:38;;;;;;;0.00;0.00;;;;;;;9.94;57.89;93349.13;6128766;23;20044;-86
2024/02/23 00:13:03;;;;;;;0.20;0.15;;;;;;;9.86;58.44;93337.25;6152950;23;20001;-86
2024/02/23 00:15:32;;;;;;;0.00;0.00;;;;;;;10.01;57.47;93323.84;6128779;23;20014;-86
2024/02/23 00:17:57;;;;;;;0.22;0.03;;;;;;;9.78;59.04;93334.94;6103928;23;20016;-87
2024/02/23 00:20:23;;;;;;;0.00;0.00;;;;;;;9.94;58.06;93334.34;6128286;23;20025;-87
2024/02/23 00:25:17;;;;;;;0.00;0.00;;;;;;;9.73;58.32;93316.63;6202883;23;20013;-87
2024/02/23 00:27:43;;;;;;;0.00;0.00;;;;;;;9.87;58.30;93327.63;6137151;23;20068;-87
2024/02/23 00:30:09;;;;;;;0.25;0.00;;;;;;;9.79;58.31;93329.53;6138707;23;20004;-87
2024/02/23 00:32:35;;;;;;;0.03;0.03;;;;;;;9.81;57.74;93329.31;6138758;23;20000;-86
2024/02/23 00:35:00;;;;;;;1.17;0.10;;;;;;;9.75;57.71;93320.59;6163212;23;20016;-87
2024/02/23 00:37:26;;;;;;;1.35;0.00;;;;;;;9.73;57.80;93307.03;6138290;23;20019;-86
2024/02/23 00:39:51;;;;;;;0.30;0.00;;;;;;;9.67;58.59;93307.91;6156704;23;20076;-86
2024/02/23 00:42:17;;;;;;;0.10;0.00;;;;;;;9.64;57.42;93303.16;6182499;23;20013;-86
2024/02/23 00:44:42;;;;;;;0.40;0.10;;;;;;;9.77;57.71;93297.78;6161329;23;20017;-86
2024/02/23 00:47:07;;;;;;;0.63;0.05;;;;;;;9.65;57.92;93276.16;6163011;23;20015;-86
2024/02/23 00:49:33;;;;;;;0.00;0.00;;;;;;;9.54;58.11;93271.75;6162978;23;20015;-87
2024/02/23 00:51:58;;;;;;;0.10;0.10;;;;;;;9.64;57.36;93273.81;6162630;23;20039;-86
2024/02/23 00:54:24;;;;;;;0.10;0.10;;;;;;;9.56;57.42;93293.06;6182974;23;20024;-86
2024/02/23 00:56:49;;;;;;;0.10;0.10;;;;;;;9.73;57.09;93299.25;6133167;23;20013;-86
2024/02/23 00:59:15;;;;;;;0.00;0.00;;;;;;;9.62;57.17;93305.19;6157409;23;20009;-86
2024/02/23 01:01:43;;;;;;;0.08;0.00;;;;;;;9.53;57.36;93312.44;6133442;23;20013;-86
2024/02/23 01:04:09;;;;;;;0.00;0.00;;;;;;;9.53;57.63;93322.03;6133626;23;20032;-86
2024/02/23 01:06:34;;;;;;;0.52;0.10;;;;;;;9.63;55.40;93311.16;6157733;23;20005;-86
2024/02/23 01:09:00;;;;;;;0.00;0.00;;;;;;;9.52;55.88;93304.88;6158105;23;20017;-87
2024/02/23 01:13:50;;;;;;;0.10;0.00;;;;;;;9.44;56.63;93318.16;6241629;22;20020;-86
2024/02/23 01:16:16;;;;;;;0.00;0.00;;;;;;;9.53;55.38;93312.44;6167650;23;20012;-86
2024/02/23 01:18:43;;;;;;;0.10;0.05;;;;;;;9.54;55.02;93308.84;6242564;23;20034;-86
2024/02/23 01:21:12;;;;;;;0.10;0.00;;;;;;;9.49;54.30;93302.72;6192167;23;20016;-86
2024/02/23 01:23:37;;;;;;;0.00;0.00;;;;;;;9.25;55.27;93305.19;6218163;23;20038;-86
2024/02/23 01:26:03;;;;;;;0.20;0.10;;;;;;;9.48;54.45;93319.31;6192638;23;20008;-87
2024/02/23 01:28:28;;;;;;;0.77;0.10;;;;;;;9.62;53.89;93328.53;6192437;23;20019;-86
2024/02/23 01:33:20;;;;;;;0.57;0.20;;;;;;;9.53;53.66;93319.44;6236759;22;20171;-86
2024/02/23 01:35:46;;;;;;;0.10;0.10;;;;;;;9.61;53.85;93315.78;6218544;23;20103;-87
2024/02/23 01:38:11;;;;;;;1.38;0.10;;;;;;;9.54;54.34;93313.25;6219339;23;20032;-86
2024/02/23 01:40:37;;;;;;;1.08;0.10;;;;;;;9.48;54.50;93312.34;6193841;23;20012;-86
2024/02/23 01:43:05;;;;;;;0.20;0.10;;;;;;;9.55;54.04;93315.63;6194260;23;20012;-86
2024/02/23 01:45:31;;;;;;;0.10;0.10;;;;;;;9.43;53.78;93311.41;6219526;23;20011;-86
2024/02/23 01:47:58;;;;;;;0.82;0.08;;;;;;;9.41;54.43;93323.78;6194391;23;20011;-87
2024/02/23 01:50:25;;;;;;;0.30;0.10;;;;;;;9.47;54.33;93331.50;6219032;23;20008;-86
2024/02/23 01:52:52;;;;;;;0.13;0.10;;;;;;;9.38;54.35;93330.19;6194469;23;20004;-86
2024/02/23 01:55:19;;;;;;;0.60;0.10;;;;;;;9.24;54.71;93319.16;6194741;23;20015;-86
2024/02/23 01:57:46;;;;;;;0.40;0.10;;;;;;;9.45;54.21;93324.94;6194075;23;20034;-86
2024/02/23 02:00:16;;;;;;;0.10;0.10;;;;;;;9.47;54.56;93322.91;6219203;23;20006;-86
2024/02/23 02:02:43;;;;;;;0.28;0.10;;;;;;;9.32;55.04;93318.88;6194008;23;20018;-86
2024/02/23 02:05:08;;;;;;;0.15;0.10;;;;;;;9.46;54.66;93322.13;6193999;23;20008;-86
2024/02/23 02:12:35;;;;;;;0.52;0.00;;;;;;;9.48;54.66;93317.53;6244233;22;20031;-86
2024/02/23 02:15:01;;;;;;;0.20;0.10;;;;;;;9.44;54.66;93318.16;6218901;23;20008;-87
2024/02/23 02:17:27;;;;;;;0.93;0.10;;;;;;;9.47;54.69;93321.13;6193736;23;20012;-87
2024/02/23 02:19:53;;;;;;;0.35;0.08;;;;;;;9.49;54.32;93319.09;6219006;23;20016;-85
2024/02/23 02:22:19;;;;;;;0.65;0.10;;;;;;;9.57;53.78;93320.59;6193836;23;20030;-86
2024/02/23 02:24:46;;;;;;;0.10;0.05;;;;;;;9.34;53.75;93301.28;6193920;23;20103;-86
2024/02/23 02:29:37;;;;;;;0.05;0.05;;;;;;;9.30;55.34;93302.72;6216550;23;20023;-86
2024/02/23 02:32:03;;;;;;;0.00;0.00;;;;;;;9.43;54.02;93293.22;6219209;23;20012;-86
2024/02/23 02:34:29;;;;;;;0.20;0.10;;;;;;;9.49;53.26;93285.34;6193653;23;20015;-86
2024/02/23 02:36:54;;;;;;;0.03;0.03;;;;;;;9.26;54.26;93280.84;6219455;23;20015;-87
2024/02/23 02:39:20;;;;;;;0.35;0.10;;;;;;;9.28;54.55;93294.38;6218751;23;20012;-86
2024/02/23 02:41:48;;;;;;;0.20;0.00;;;;;;;9.28;54.54;93289.19;6219104;23;20008;-87
2024/02/23 02:44:16;;;;;;;0.10;0.10;;;;;;;9.15;55.39;93276.38;6218788;23;20008;-86
2024/02/23 02:46:42;;;;;;;0.08;0.00;;;;;;;8.96;55.70;93275.56;6193346;23;20004;-87
2024/02/23 02:49:07;;;;;;;1.40;0.20;;;;;;;8.97;55.89;93283.13;6182223;23;20096;-87
2024/02/23 02:51:33;;;;;;;0.10;0.03;;;;;;;9.11;55.52;93283.00;6160734;23;20020;-86
2024/02/23 02:53:58;;;;;;;0.10;0.10;;;;;;;9.23;55.84;93288.25;6164260;23;20008;-86
2024/02/23 02:56:24;;;;;;;0.32;0.10;;;;;;;9.09;55.28;93285.81;6202365;23;20066;-86
2024/02/23 02:58:49;;;;;;;0.10;0.10;;;;;;;9.29;54.79;93274.41;6219635;23;20012;-86
2024/02/23 03:01:15;;;;;;;0.93;0.20;;;;;;;9.31;55.00;93282.75;6213715;23;20015;-86
2024/02/23 03:03:40;;;;;;;0.10;0.10;;;;;;;9.22;55.05;93278.91;6213400;23;20027;-86
2024/02/23 03:06:06;;;;;;;0.10;0.10;;;;;;;9.05;55.90;93279.47;6188225;23;20012;-86
2024/02/23 03:08:32;;;;;;;1.08;0.10;;;;;;;9.16;54.91;93280.56;6188829;23;20012;-86
2024/02/23 03:10:57;;;;;;;0.00;0.00;;;;;;;9.30;54.71;93281.97;6213921;23;20092;-86
2024/02/23 03:13:25;;;;;;;0.10;0.10;;;;;;;9.15;56.13;93282.34;6188311;23;20005;-86
2024/02/23 03:15:50;;;;;;;0.30;0.10;;;;;;;9.27;55.49;93276.44;6213538;23;20036;-87
2024/02/23 03:18:16;;;;;;;1.35;0.20;;;;;;;9.28;55.40;93270.25;6188294;23;20012;-86
2024/02/23 03:20:42;;;;;;;0.13;0.10;;;;;;;9.19;55.99;93283.50;6213319;23;20018;-86
2024/02/23 03:25:33;;;;;;;0.20;0.10;;;;;;;9.05;56.01;93278.69;6243399;22;20020;-87
2024/02/23 03:27:59;;;;;;;0.85;0.10;;;;;;;9.09;55.16;93270.25;6218572;23;20012;-87
2024/02/23 03:30:24;;;;;;;1.35;0.20;;;;;;;9.11;55.91;93277.81;6193139;23;20015;-86
2024/02/23 03:32:49;;;;;;;0.20;0.20;;;;;;;9.13;55.48;93283.56;6218354;23;20101;-86
2024/02/23 03:35:15;;;;;;;0.28;0.20;;;;;;;9.07;55.18;93277.44;6243500;23;20004;-87
2024/02/23 03:37:40;;;;;;;0.38;0.20;;;;;;;9.02;55.56;93284.28;6218672;23;20038;-86
2024/02/23 03:40:10;;;;;;;0.80;0.15;;;;;;;9.07;54.54;93274.06;6193563;23;20019;-86
2024/02/23 03:42:36;;;;;;;0.10;0.10;;;;;;;8.77;55.59;93280.72;6218675;23;20004;-86
2024/02/23 03:45:05;;;;;;;0.10;0.10;;;;;;;9.04;55.13;93298.59;6192765;23;20015;-87
2024/02/23 03:47:31;;;;;;;1.25;0.20;;;;;;;8.85;55.68;93276.28;6193855;23;20015;-86
2024/02/23 03:49:56;;;;;;;0.30;0.20;;;;;;;8.69;56.82;93282.81;6192970;23;20012;-86
2024/02/23 03:52:22;;;;;;;0.10;0.10;;;;;;;9.02;55.26;93274.69;6192759;23;20004;-87
2024/02/23 03:54:48;;;;;;;0.52;0.20;;;;;;;8.79;54.70;93276.13;6218346;23;20008;-87
2024/02/23 03:57:13;;;;;;;0.20;0.20;;;;;;;8.65;55.71;93271.28;6192333;23;20008;-87
2024/02/23 03:59:38;;;;;;;0.10;0.10;;;;;;;8.65;55.42;93269.47;6192889;23;20022;-86
2024/02/23 04:02:07;;;;;;;0.43;0.13;;;;;;;8.85;55.16;93245.94;6217660;23;20018;-86
2024/02/23 04:04:33;;;;;;;0.20;0.10;;;;;;;9.02;55.02;93243.59;6192848;23;20008;-87
2024/02/23 04:09:24;;;;;;;0.25;0.13;;;;;;;8.92;53.82;93244.09;6240845;22;20178;-86
2024/02/23 04:11:50;;;;;;;1.08;0.22;;;;;;;8.65;54.55;93250.56;6193625;23;20083;-87
2024/02/23 04:14:15;;;;;;;1.05;0.30;;;;;;;8.60;55.37;93239.03;6193168;23;20008;-87
2024/02/23 04:16:42;;;;;;;0.68;0.10;;;;;;;8.82;53.78;93250.78;6217958;23;20008;-87
2024/02/23 04:19:07;;;;;;;0.30;0.20;;;;;;;8.83;54.12;93250.56;6217676;23;20004;-86
2024/02/23 04:21:33;;;;;;;1.65;0.20;;;;;;;8.88;54.23;93261.09;6192604;23;20014;-86
2024/02/23 04:23:58;;;;;;;1.73;0.30;;;;;;;8.93;53.41;93270.78;6192568;23;20019;-87
2024/02/23 04:31:24;;;;;;;0.30;0.15;;;;;;;8.98;53.68;93279.50;6243265;22;20273;-86
2024/02/23 04:33:50;;;;;;;0.68;0.25;;;;;;;9.05;54.48;93284.66;6217948;23;20050;-87
2024/02/23 04:36:19;;;;;;;0.20;0.20;;;;;;;8.59;54.71;93281.50;6217750;23;20008;-86
2024/02/23 04:38:45;;;;;;;0.88;0.40;;;;;;;8.99;54.31;93301.84;6218008;23;20023;-86
2024/02/23 04:41:10;;;;;;;1.30;0.30;;;;;;;8.82;53.63;93295.66;6192492;23;20012;-86
2024/02/23 04:43:36;;;;;;;1.77;0.30;;;;;;;8.50;54.57;93293.13;6192580;23;20083;-86
2024/02/23 04:46:01;;;;;;;0.40;0.20;;;;;;;8.64;53.83;93283.44;6217549;23;20069;-87
2024/02/23 04:48:31;;;;;;;1.83;0.30;;;;;;;8.66;54.30;93291.00;6192950;23;20012;-87
2024/02/23 04:50:57;;;;;;;1.45;0.20;;;;;;;9.08;52.96;93291.19;6168395;23;20008;-87
2024/02/23 04:53:26;;;;;;;0.77;0.28;;;;;;;8.82;53.53;93293.06;6169320;23;20066;-87
2024/02/23 04:58:17;;;;;;;0.70;0.20;;;;;;;8.78;54.30;93292.69;6239242;22;20051;-86
2024/02/23 05:00:42;;;;;;;2.55;0.52;;;;;;;9.08;53.19;93296.38;6217637;23;20106;-87
2024/02/23 05:03:08;;;;;;;0.40;0.30;;;;;;;8.76;54.24;93280.97;6192481;23;20028;-87
2024/02/23 05:05:35;;;;;;;1.38;0.40;;;;;;;8.91;53.85;93296.97;6192863;23;20012;-87
2024/02/23 05:08:01;;;;;;;1.05;0.30;;;;;;;8.83;53.91;93271.28;6192397;23;20004;-86
2024/02/23 05:12:51;;;;;;;2.13;0.30;;;;;;;8.65;54.66;93281.66;6189361;23;20028;-87
2024/02/23 05:15:17;;;;;;;0.75;0.30;;;;;;;8.71;55.14;93278.19;6194490;23;20012;-86
2024/02/23 05:17:45;;;;;;;1.65;0.40;;;;;;;8.80;54.22;93269.16;6194740;23;20008;-86
2024/02/23 05:20:11;;;;;;;0.50;0.20;;;;;;;8.83;52.80;93265.31;6195463;23;20008;-86
2024/02/23 05:22:38;;;;;;;0.30;0.22;;;;;;;8.63;54.07;93281.06;6219482;23;20016;-86
2024/02/23 05:25:04;;;;;;;1.17;0.30;;;;;;;8.66;53.00;93285.81;6220541;23;20050;-86
2024/02/23 05:27:32;;;;;;;1.13;0.22;;;;;;;8.74;53.55;93290.75;6219826;23;20012;-87
2024/02/23 05:29:58;;;;;;;0.63;0.20;;;;;;;8.42;53.52;93270.09;6194309;23;20016;-86
2024/02/23 05:32:23;;;;;;;1.10;0.40;;;;;;;8.54;53.86;93276.13;6220004;23;20019;-86
2024/02/23 05:34:51;;;;;;;1.65;0.20;;;;;;;8.45;53.77;93263.66;6194798;23;20163;-87
2024/02/23 05:39:50;;;;;;;1.33;0.30;;;;;;;8.12;55.68;93277.66;6201000;23;20028;-86
2024/02/23 05:42:16;;;;;;;1.23;0.30;;;;;;;8.25;54.67;93266.41;6164901;23;20063;-87
2024/02/23 05:44:46;;;;;;;1.02;0.32;;;;;;;8.29;54.87;93257.19;6189532;23;20032;-86
2024/02/23 05:47:13;;;;;;;1.83;0.60;;;;;;;8.20;54.87;93241.91;6189999;23;20084;-86
2024/02/23 05:49:39;;;;;;;2.38;0.70;;;;;;;8.23;54.81;93245.88;6169584;23;20016;-88
2024/02/23 05:54:29;;;;;;;1.42;0.50;;;;;;;7.89;55.48;93229.81;6253166;22;20043;-87
2024/02/23 05:56:55;;;;;;;1.02;0.60;;;;;;;7.76;56.45;93241.03;6219603;23;20008;-86
2024/02/23 05:59:20;;;;;;;0.77;0.50;;;;;;;7.80;55.93;93234.44;6220241;22;20007;-88
2024/02/23 06:01:46;;;;;;;1.38;0.50;;;;;;;7.85;56.53;93253.72;6220239;22;20036;-87
2024/02/23 06:04:11;;;;;;;1.88;0.70;;;;;;;7.79;56.83;93271.69;6244480;22;19992;-86
2024/02/23 06:06:37;;;;;;;1.20;0.40;;;;;;;7.75;56.35;93296.38;6244387;23;20000;-87
2024/02/23 06:09:03;;;;;;;2.25;0.50;;;;;;;7.48;56.53;93269.03;6220016;22;20015;-87
2024/02/23 06:11:29;;;;;;;2.22;0.65;;;;;;;7.47;56.95;93272.63;6220989;23;20012;-87
2024/02/23 06:16:19;;;;;;;2.30;0.65;;;;;;;7.54;56.26;93274.19;6258490;22;20055;-87
2024/02/23 06:18:50;;;;;;;1.00;0.60;;;;;;;7.48;56.63;93266.44;6221290;23;20016;-86
2024/02/23 06:21:17;;;;;;;;;;;;;;;7.30;57.40;93273.09;6222250;23;20016;-87
2024/02/23 06:23:43;;;;;;;1.77;0.20;;;;;;;7.34;55.82;93276.84;6221160;23;19948;-87
2024/02/23 06:26:09;;;;;;;1.05;0.40;;;;;;;7.35;56.56;93257.78;6221576;23;20027;-87
2024/02/23 06:28:34;;;;;;;0.82;0.38;;;;;;;7.30;56.31;93254.22;6222909;23;20000;-87
2024/02/23 06:33:35;;;;;;;0.75;0.50;;;;;;;7.26;56.03;93259.00;6246940;22;20035;-86
2024/02/23 06:36:03;;;;;;;1.15;0.40;;;;;;;7.55;55.72;93249.13;6245994;23;20000;-86
2024/02/23 06:38:28;;;;;;;1.30;0.52;;;;;;;7.38;55.34;93243.63;6196297;23;20012;-86
2024/02/23 06:40:55;;;;;;;2.35;0.57;;;;;;;7.18;56.40;93254.06;6221473;23;20107;-86
2024/02/23 06:43:20;;;;;;;2.05;0.40;;;;;;;7.54;56.15;93296.66;6228588;23;20062;-87
2024/02/23 06:45:46;;;;;;;1.35;0.95;;;;;;;7.71;54.11;93279.69;6195590;23;20038;-87
2024/02/23 06:48:11;;;;;;;2.05;0.85;;;;;;;7.74;54.13;93287.03;6195183;23;20008;-87
2024/02/23 06:53:12;;;;;;;1.70;0.63;;;;;;;8.02;54.00;93260.78;6214463;23;20106;-86
2024/02/23 06:55:39;;;;;;;0.77;0.50;;;;;;;7.95;52.65;93251.47;6214130;23;20020;-87
2024/02/23 06:58:07;;;;;;;1.02;0.60;;;;;;;8.06;52.10;93286.25;6188703;23;20044;-87
2024/02/23 07:00:32;;;;;;;1.52;0.60;;;;;;;8.16;52.81;93277.00;6189262;23;20013;-87
2024/02/23 07:02:58;;;;;;;1.17;0.50;;;;;;;8.11;52.43;93232.84;6163461;23;20043;-86
2024/02/23 07:05:25;;;;;;;1.88;0.57;;;;;;;8.06;52.38;93248.22;6153270;23;20047;-87
2024/02/23 07:07:52;;;;;;;1.00;0.60;;;;;;;8.06;53.18;93263.75;6189234;23;20020;-86
2024/02/23 07:10:18;;;;;;;0.93;0.45;;;;;;;8.19;51.47;93248.09;6213868;23;20025;-86
2024/02/23 07:12:45;;;;;;;1.33;0.50;;;;;;;8.13;52.31;93266.25;6166372;23;20012;-88
2024/02/23 07:15:13;;;;;;;2.45;0.60;;;;;;;8.07;52.23;93293.78;6188934;23;20009;-85
2024/02/23 07:17:39;;;;;;;2.72;0.60;;;;;;;7.99;54.98;93307.78;6188904;23;20008;-85
2024/02/23 07:22:31;;;;;;;1.92;0.57;;;;;;;8.32;52.66;93299.03;6208507;23;20091;-87
2024/02/23 07:24:56;;;;;;;0.77;0.70;;;;;;;8.26;52.99;93297.25;6188266;23;20017;-87
2024/02/23 07:27:24;;;;;;;1.30;0.40;;;;;;;8.35;52.26;93293.41;6188032;23;20019;-87
2024/02/23 07:29:49;;;;;;;0.35;0.35;;;;;;;8.22;53.09;93286.53;6213691;23;20087;-86
2024/02/23 07:32:15;;;;;;;1.00;0.40;;;;;;;8.21;53.53;93284.94;6187395;23;20016;-87
2024/02/23 07:34:42;;;;;;;2.22;0.50;;;;;;;8.36;52.08;93295.00;6188309;23;20016;-86
2024/02/23 07:37:10;;;;;;;3.20;0.65;;;;;;;8.29;52.60;93312.38;6188309;23;20008;-87
2024/02/23 07:39:36;;;;;;;1.73;0.70;;;;;;;8.30;51.94;93311.38;6213213;23;20005;-87
2024/02/23 07:42:02;;;;;;;1.40;0.50;;;;;;;8.19;51.81;93315.44;6238495;23;20015;-87
2024/02/23 07:44:27;;;;;;;2.47;0.50;;;;;;;8.18;52.47;93311.25;6163926;23;20087;-87
2024/02/23 07:46:54;;;;;;;2.55;0.73;;;;;;;7.89;52.81;93302.28;6163627;23;20044;-88
2024/02/23 07:49:23;;;;;;;2.20;0.70;;;;;;;7.93;52.99;93297.47;6213374;23;20008;-87
2024/02/23 07:51:49;;;;;;;1.77;0.82;;;;;;;7.88;53.68;93299.88;6212849;23;20004;-86
2024/02/23 07:54:16;;;;;;;3.58;1.15;;;;;;;7.93;54.19;93323.38;6188826;23;20058;-86
2024/02/23 07:56:41;;;;;;;1.40;0.75;;;;;;;8.15;52.68;93306.50;6188448;23;20005;-86
2024/02/23 07:59:11;;;;;;;2.22;0.93;;;;;;;8.19;52.58;93305.06;6213665;23;20004;-87
2024/02/23 08:01:36;;;;;;;1.88;0.60;;;;;;;8.18;52.81;93300.88;6213233;23;20091;-85
2024/02/23 08:04:02;;;;;;;1.98;0.63;;;;;;;8.28;53.60;93315.19;6163397;23;20028;-87
2024/02/23 08:06:28;;;;;;;2.10;0.60;;;;;;;8.26;53.75;93304.22;6188197;23;20016;-87
2024/02/23 08:08:55;;;;;;;0.88;0.50;;;;;;;8.01;53.94;93305.00;6163278;23;20000;-87
2024/02/23 08:11:20;;;;;;;2.58;0.70;;;;;;;8.29;52.51;93314.19;6163469;23;20011;-87
2024/02/23 08:13:46;;;;;;;5.05;0.77;;;;;;;8.38;52.16;93318.09;6213490;23;20004;-87
2024/02/23 08:16:15;;;;;;;0.93;0.40;;;;;;;8.28;52.27;93300.44;6213263;23;20005;-87
2024/02/23 08:18:41;;;;;;;1.45;0.50;;;;;;;8.40;53.78;93313.50;6188277;23;20015;-87
2024/02/23 08:26:31;;;;;;;1.48;0.60;;;;;;;8.48;52.01;93318.44;6207000;23;20087;-86
2024/02/23 08:28:56;;;;;;;1.38;0.57;;;;;;;8.48;52.11;93312.47;6162892;23;20017;-86
2024/02/23 08:31:22;;;;;;;2.75;0.57;;;;;;;8.68;52.11;93317.50;6138678;23;20012;-86
2024/02/23 08:33:47;;;;;;;1.15;0.60;;;;;;;8.72;51.25;93316.06;6187650;23;20111;-87
2024/02/23 08:36:12;;;;;;;2.75;0.63;;;;;;;8.90;51.22;93318.69;6188015;23;20008;-86
2024/02/23 08:38:38;;;;;;;4.18;0.60;;;;;;;9.05;49.82;93307.22;6188002;23;20031;-86
2024/02/23 08:41:04;;;;;;;2.58;0.70;;;;;;;8.95;50.34;93315.47;6187684;23;20004;-86
2024/02/23 08:43:32;;;;;;;2.55;0.73;;;;;;;9.02;49.13;93310.22;6212893;23;20011;-86
2024/02/23 08:45:57;;;;;;;1.02;0.43;;;;;;;9.04;48.23;93297.81;6165124;23;20071;-86
2024/02/23 08:48:25;;;;;;;2.65;0.60;;;;;;;8.93;49.42;93300.13;6145930;23;20014;-87
2024/02/23 08:50:51;;;;;;;1.42;0.60;;;;;;;8.70;49.70;93292.16;6131159;23;20029;-86
2024/02/23 08:53:16;;;;;;;2.45;0.60;;;;;;;8.84;49.32;93291.03;6155168;23;20025;-87
2024/02/23 08:55:41;;;;;;;1.65;0.50;;;;;;;8.86;50.18;93281.25;6180272;23;20005;-86
2024/02/23 08:58:07;;;;;;;1.17;0.70;;;;;;;8.92;49.81;93269.22;6130438;23;20013;-86
2024/02/23 09:00:32;;;;;;;3.05;0.60;;;;;;;9.02;48.85;93279.88;6179900;23;20012;-88
2024/02/23 09:03:01;;;;;;;1.35;0.50;;;;;;;8.95;48.36;93290.34;6130584;23;20096;-87
2024/02/23 09:07:53;;;;;;;1.35;0.50;;;;;;;8.91;48.09;93294.38;6208929;23;20009;-87
2024/02/23 09:10:18;;;;;;;1.08;0.50;;;;;;;8.80;49.85;93292.47;6189931;23;20017;-87
2024/02/23 09:12:44;;;;;;;2.08;0.50;;;;;;;8.65;52.81;93290.22;6180055;23;20099;-87
2024/02/23 09:15:09;;;;;;;2.08;0.63;;;;;;;8.94;51.62;93291.31;6195019;23;20004;-87
2024/02/23 09:17:35;;;;;;;2.67;0.50;;;;;;;9.13;49.43;93294.72;6194751;23;20080;-87
2024/02/23 09:22:26;;;;;;;3.90;0.50;;;;;;;8.89;51.06;93280.00;6206791;23;20047;-87
2024/02/23 09:24:51;;;;;;;1.73;0.50;;;;;;;8.96;51.99;93297.09;6159755;23;20019;-87
2024/02/23 09:27:17;;;;;;;1.65;0.93;;;;;;;9.05;49.70;93286.47;6135603;23;20005;-87
2024/02/23 09:29:47;;;;;;;1.45;0.47;;;;;;;8.98;49.34;93300.25;6159881;23;20009;-86
2024/02/23 09:32:12;;;;;;;2.70;0.50;;;;;;;8.94;48.49;93277.59;6159613;23;20096;-86
2024/02/23 09:37:14;;;;;;;0.75;0.45;;;;;;;9.15;47.56;93289.34;6170874;23;20025;-87
2024/02/23 09:39:40;;;;;;;3.78;0.65;;;;;;;9.19;48.84;93287.88;6130446;23;20032;-86
2024/02/23 09:42:10;;;;;;;2.17;0.57;;;;;;;9.00;47.98;93279.31;6105964;23;20005;-87
2024/02/23 09:44:36;;;;;;;1.98;1.00;;;;;;;9.02;47.22;93279.88;6105872;23;20010;-87
2024/02/23 09:47:11;;;;;;;2.35;0.75;;;;;;;8.97;47.80;93277.94;6105901;23;20101;-87
2024/02/23 09:49:40;;;;;;;2.50;0.60;;;;;;;9.16;45.56;93283.94;6186309;23;20071;-87
2024/02/23 09:52:09;;;;;;;0.90;0.50;;;;;;;8.82;47.45;93274.13;6164645;23;20091;-86
2024/02/23 09:54:39;;;;;;;1.48;0.50;;;;;;;8.97;46.90;93282.34;6189372;23;20094;-87
2024/02/23 09:57:08;;;;;;;1.52;0.50;;;;;;;8.87;47.60;93285.44;6188548;23;20008;-87
2024/02/23 09:59:34;;;;;;;3.30;0.50;;;;;;;9.05;47.42;93278.69;6189368;23;20013;-87
2024/02/23 10:04:29;;;;;;;1.90;0.60;;;;;;;8.98;48.89;93268.34;6212786;23;20011;-87
2024/02/23 10:06:56;;;;;;;12.00;6.85;;;;;;;9.25;47.78;93279.22;6214667;23;20017;-86
2024/02/23 10:09:21;;;;;;;3.70;1.70;;;;;;;9.19;47.39;93269.72;6189522;23;20225;-86
2024/02/23 10:11:53;;;;;;;3.00;1.05;;;;;;;9.25;45.80;93278.44;6164403;23;20009;-87
2024/02/23 10:14:18;;;;;;;6.55;1.10;;;;;;;9.28;47.73;93278.03;6164537;23;20058;-87
2024/02/23 10:16:43;;;;;;;1.02;0.70;;;;;;;9.56;46.01;93285.28;6164241;23;20016;-87
2024/02/23 10:19:09;;;;;;;2.90;1.35;;;;;;;9.30;47.65;93266.41;6164238;23;20008;-87
2024/02/23 10:21:35;;;;;;;10.65;8.48;;;;;;;9.43;47.46;93267.28;6165002;23;20012;-87
2024/02/23 10:24:00;;;;;;;5.40;3.28;;;;;;;9.54;46.62;93275.13;6224946;23;20031;-87
2024/02/23 10:26:27;;;;;;;5.18;2.00;;;;;;;9.69;44.99;93268.72;6198280;23;20004;-87
2024/02/23 10:28:53;;;;;;;4.70;2.00;;;;;;;9.49;46.06;93282.75;6194294;23;20072;-87
2024/02/23 10:31:18;;;;;;;5.18;1.88;;;;;;;9.61;46.85;93288.00;6219564;23;20012;-87
2024/02/23 10:33:50;;;;;;;4.30;1.10;;;;;;;9.63;48.44;93285.19;6219276;23;20000;-87
2024/02/23 10:36:17;;;;;;;1.83;0.50;;;;;;;9.70;46.90;93275.53;6194171;23;20008;-88
2024/02/23 10:38:52;;;;;;;2.28;0.68;;;;;;;9.75;47.38;93280.84;6219545;23;20012;-87
2024/02/23 10:41:18;;;;;;;2.25;0.70;;;;;;;9.57;47.90;93279.06;6219188;23;20015;-86
2024/02/23 10:46:14;;;;;;;11.82;6.25;;;;;;;9.60;47.16;93276.06;6213826;23;20075;-87
2024/02/23 10:48:42;;;;;;;8.80;5.85;;;;;;;9.49;47.60;93281.97;6189182;23;20075;-87
2024/02/23 10:51:09;;;;;;;3.67;2.30;;;;;;;9.47;48.86;93276.22;6188813;23;20039;-87
2024/02/23 10:56:10;;;;;;;2.40;0.63;;;;;;;9.76;47.20;93283.22;6214394;23;20029;-86
2024/02/23 10:58:39;;;;;;;4.68;1.17;;;;;;;9.58;46.84;93278.84;6163538;23;20004;-87
2024/02/23 11:01:09;;;;;;;2.95;1.30;;;;;;;9.67;48.00;93275.94;6188354;23;20023;-86
2024/02/23 11:06:09;;;;;;;3.67;1.67;;;;;;;9.93;45.48;93246.25;6214694;23;20037;-87
2024/02/23 11:08:38;;;;;;;2.58;0.98;;;;;;;9.59;46.41;93249.31;6163315;23;20009;-88
2024/02/23 11:11:11;;;;;;;2.78;0.70;;;;;;;9.51;45.94;93235.84;6188158;23;20004;-87
2024/02/23 11:13:38;;;;;;;1.50;0.60;;;;;;;9.38;47.45;93240.16;6188848;23;20009;-87
2024/02/23 11:18:38;;;;;;;1.17;0.60;;;;;;;9.42;48.58;93248.31;6183535;23;20009;-87
2024/02/23 11:21:07;;;;;;;;;;;;;;;9.27;48.93;93260.88;6214064;23;20016;-87
2024/02/23 11:23:53;;;;;;;2.40;0.80;;;;;;;9.04;49.78;93261.53;6164332;23;19994;-87
2024/02/23 11:28:54;;;;;;;4.35;0.70;;;;;;;9.19;50.49;93254.97;6214172;23;20047;-87
2024/02/23 11:31:24;;;;;;;2.92;0.82;;;;;;;9.21;50.27;93241.78;6138834;23;20035;-87
2024/02/23 11:33:51;;;;;;;1.05;0.60;;;;;;;9.12;49.96;93233.50;6189565;23;20035;-87
2024/02/23 11:36:32;;;;;;;1.33;0.52;;;;;;;8.91;51.00;93234.75;6164038;23;20044;-86
2024/02/23 11:38:58;;;;;;;1.83;0.75;;;;;;;9.23;51.41;93234.56;6213345;23;20004;-87
2024/02/23 11:43:55;;;;;;;1.90;0.80;;;;;;;9.06;51.53;93229.16;6186087;23;20035;-87
2024/02/23 11:46:23;;;;;;;1.67;0.60;;;;;;;9.23;51.79;93239.75;6188053;23;20031;-87
2024/02/23 11:48:59;;;;;;;3.28;0.85;;;;;;;9.31;49.65;93234.28;6188693;23;20009;-87
2024/02/23 11:51:29;;;;;;;2.22;0.80;;;;;;;9.13;50.09;93253.22;6190814;23;20005;-87
2024/02/23 11:53:58;;;;;;;3.13;0.68;;;;;;;9.26;49.78;93249.69;6164362;23;20009;-87
2024/02/23 11:56:23;;;;;;;1.70;0.93;;;;;;;9.18;49.10;93229.25;6164257;23;20040;-87
2024/02/23 11:58:49;;;;;;;1.35;0.75;;;;;;;9.18;49.16;93232.63;6188228;23;20000;-87
2024/02/23 12:01:14;;;;;;;2.95;0.82;;;;;;;9.09;49.59;93244.31;6188530;23;19997;-87
2024/02/23 12:03:41;;;;;;;2.42;0.60;;;;;;;9.20;50.16;93238.41;6188233;23;20015;-86
2024/02/23 12:06:07;;;;;;;4.15;0.80;;;;;;;9.14;49.55;93236.69;6162995;23;20023;-86
2024/02/23 12:13:38;;;;;;;1.90;0.60;;;;;;;9.37;49.67;93225.63;6212681;23;20032;-87
2024/02/23 12:16:09;;;;;;;2.00;0.80;;;;;;;9.41;49.82;93238.97;6164041;23;20014;-87
2024/02/23 12:18:35;;;;;;;4.22;0.70;;;;;;;9.55;51.03;93242.94;6163810;23;20005;-87
2024/02/23 12:21:02;;;;;;;1.90;0.70;;;;;;;9.88;49.93;93230.53;6188315;23;20000;-87
2024/02/23 12:23:53;;;;;;;1.73;0.52;;;;;;;9.62;48.52;93216.94;6163627;23;20019;-86
2024/02/23 12:26:18;;;;;;;;;;;;;;;9.95;49.93;93224.22;6188980;23;20058;-86
2024/02/23 12:28:47;;;;;;;1.98;0.77;;;;;;;10.22;48.21;93218.63;6188084;23;19907;-87
2024/02/23 12:31:12;;;;;;;2.65;0.70;;;;;;;10.33;48.70;93224.91;6213724;23;20005;-87
2024/02/23 12:36:04;;;;;;;1.17;0.70;;;;;;;10.30;49.14;93223.53;6212699;23;20025;-87
2024/02/23 12:38:30;;;;;;;3.40;0.90;;;;;;;10.48;47.87;93211.47;6187557;23;20020;-86
2024/02/23 12:40:56;;;;;;;2.90;0.70;;;;;;;10.50;47.66;93205.00;6188624;23;20060;-86
2024/02/23 12:43:24;;;;;;;1.05;0.70;;;;;;;10.34;47.98;93197.91;6183097;23;20017;-89
2024/02/23 12:45:54;;;;;;;1.42;0.70;;;;;;;10.15;48.25;93194.59;6163931;23;20013;-86
2024/02/23 12:48:21;;;;;;;2.63;0.90;;;;;;;10.12;48.04;93185.41;6213163;23;20012;-86
2024/02/23 12:55:48;;;;;;;1.48;0.80;;;;;;;11.01;47.88;93181.13;6212169;23;20008;-87
2024/02/23 12:58:14;;;;;;;2.88;0.77;;;;;;;10.98;49.00;93178.97;6188874;23;20020;-86
2024/02/23 13:00:43;;;;;;;2.03;0.70;;;;;;;11.16;49.36;93194.44;6188429;23;20054;-87
2024/02/23 13:03:10;;;;;;;2.33;0.80;;;;;;;11.43;48.09;93183.47;6188756;23;20004;-87
2024/02/23 13:05:36;;;;;;;2.90;0.70;;;;;;;11.18;48.03;93189.78;6138935;23;20024;-87